Time;durP1;ratioP1;P1;durP2;ratioP2;P2;SDS_P1;SDS_P2;PMS_P1;PMS_P2;Temp;Humidity;BMP_temperature;BMP_pressure;BME280_temperature;BME280_humidity;BME280_pressure;Samples;Min_cycle;Max_cycle;Signal;HPM_P1;HPM_P2
2023/09/18 00:00:53;;;;;;;21.97;19.77;;;;;;;17.14;100.00;93343.50;5071766;28;20248;-82
2023/09/18 00:03:20;;;;;;;19.43;17.50;;;;;;;17.13;100.00;93355.13;5088770;28;20208;-83
2023/09/18 00:05:49;;;;;;;20.03;18.13;;;;;;;17.08;100.00;93351.81;5089037;28;20252;-83
2023/09/18 00:08:15;;;;;;;19.90;18.00;;;;;;;17.03;100.00;93333.47;5088756;28;20229;-83
2023/09/18 00:10:41;;;;;;;22.53;19.43;;;;;;;16.96;100.00;93331.25;5089139;28;20184;-81
2023/09/18 00:13:06;;;;;;;19.97;17.83;;;;;;;17.01;100.00;93315.28;5088227;28;20235;-81
2023/09/18 00:15:32;;;;;;;20.50;18.53;;;;;;;17.21;100.00;93335.91;5089426;28;20280;-82
2023/09/18 00:17:57;;;;;;;21.83;18.93;;;;;;;16.98;100.00;93326.44;5088472;28;20221;-81
2023/09/18 00:20:26;;;;;;;19.73;17.73;;;;;;;16.90;100.00;93337.72;5089097;28;20213;-82
2023/09/18 00:22:55;;;;;;;21.27;18.90;;;;;;;16.80;100.00;93332.69;5088475;28;20225;-82
2023/09/18 00:25:22;;;;;;;21.30;19.10;;;;;;;16.56;100.00;93332.16;5088748;28;20184;-83
2023/09/18 00:27:47;;;;;;;21.97;19.57;;;;;;;16.44;100.00;93333.72;5088663;28;20224;-83
2023/09/18 00:30:13;;;;;;;21.40;18.50;;;;;;;16.26;100.00;93319.63;5089268;28;20211;-82
2023/09/18 00:32:38;;;;;;;23.03;19.43;;;;;;;16.25;100.00;93328.59;5088768;28;20180;-82
2023/09/18 00:35:04;;;;;;;25.40;20.97;;;;;;;16.45;100.00;93343.25;5088849;28;20212;-82
2023/09/18 00:37:29;;;;;;;20.33;18.20;;;;;;;16.43;100.00;93348.78;5068614;28;20181;-79
2023/09/18 00:39:55;;;;;;;23.47;19.47;;;;;;;16.27;100.00;93342.25;5082180;28;20193;-81
2023/09/18 00:42:22;;;;;;;23.10;19.13;;;;;;;16.25;100.00;93338.34;5088921;28;20200;-79
2023/09/18 00:44:48;;;;;;;21.90;19.53;;;;;;;16.28;100.00;93348.31;5068962;28;20293;-82
2023/09/18 00:47:14;;;;;;;21.40;18.00;;;;;;;16.32;100.00;93349.28;5072416;28;20177;-82
2023/09/18 00:49:43;;;;;;;20.40;18.33;;;;;;;16.28;100.00;93343.78;5068141;28;20248;-82
2023/09/18 00:52:10;;;;;;;22.43;19.00;;;;;;;15.91;100.00;93336.13;5060779;28;20186;-83
2023/09/18 00:54:38;;;;;;;25.17;20.43;;;;;;;15.77;100.00;93344.03;5086038;28;20254;-80
2023/09/18 00:57:04;;;;;;;26.73;19.07;;;;;;;15.95;100.00;93352.91;5098804;28;20177;-82
2023/09/18 00:59:30;;;;;;;23.90;21.50;;;;;;;16.11;100.00;93356.78;5089122;28;20220;-82
2023/09/18 01:01:56;;;;;;;21.13;18.93;;;;;;;16.07;100.00;93361.09;5107677;28;20196;-82
2023/09/18 01:04:25;;;;;;;24.77;21.07;;;;;;;16.03;100.00;93358.25;5091955;28;20294;-83
2023/09/18 01:06:51;;;;;;;23.07;20.57;;;;;;;15.84;100.00;93364.72;5088808;28;20184;-83
2023/09/18 01:09:18;;;;;;;23.30;20.33;;;;;;;15.73;100.00;93358.06;5100246;28;20229;-83
2023/09/18 01:11:54;;;;;;;24.30;21.77;;;;;;;15.81;100.00;93357.41;5097596;28;20230;-81
2023/09/18 01:14:23;;;;;;;22.27;19.97;;;;;;;15.85;100.00;93369.69;5093192;28;20222;-79
2023/09/18 01:16:56;;;;;;;22.23;20.03;;;;;;;15.82;100.00;93366.84;5107982;28;20193;-83
2023/09/18 01:19:40;;;;;;;24.67;21.30;;;;;;;15.66;100.00;93368.19;5088810;28;20213;-82
2023/09/18 01:22:06;;;;;;;21.80;19.50;;;;;;;15.83;100.00;93365.75;5088290;28;20256;-83
2023/09/18 01:24:33;;;;;;;24.00;21.33;;;;;;;15.68;100.00;93366.03;5087950;28;20221;-79
2023/09/18 01:26:59;;;;;;;22.70;20.30;;;;;;;15.65;100.00;93361.38;5088563;28;20185;-81
2023/09/18 01:29:24;;;;;;;22.30;19.60;;;;;;;15.62;100.00;93361.94;5088195;28;20311;-84
2023/09/18 01:31:51;;;;;;;23.27;20.93;;;;;;;15.63;100.00;93363.50;5088368;28;20248;-80
2023/09/18 01:34:19;;;;;;;25.23;22.57;;;;;;;15.67;100.00;93364.50;5087998;28;20221;-82
2023/09/18 01:36:45;;;;;;;27.13;21.90;;;;;;;15.67;100.00;93364.50;5057583;28;20185;-81
2023/09/18 01:39:12;;;;;;;24.47;21.87;;;;;;;15.47;100.00;93354.34;5091762;28;20284;-81
2023/09/18 01:41:39;;;;;;;26.13;21.60;;;;;;;15.51;100.00;93355.31;5092070;28;20204;-81
2023/09/18 01:44:05;;;;;;;31.20;22.50;;;;;;;15.52;100.00;93362.91;5091529;28;20231;-81
2023/09/18 01:46:36;;;;;;;25.17;21.97;;;;;;;15.54;100.00;93357.34;5092220;28;20188;-81
2023/09/18 01:49:02;;;;;;;29.13;22.47;;;;;;;15.58;100.00;93359.09;5091271;28;20233;-81
2023/09/18 01:51:28;;;;;;;28.83;22.87;;;;;;;15.49;100.00;93346.91;5091916;28;20269;-82
2023/09/18 01:53:55;;;;;;;27.63;22.93;;;;;;;15.48;100.00;93340.09;5091187;28;20212;-81
2023/09/18 01:56:20;;;;;;;30.53;23.30;;;;;;;15.52;100.00;93356.84;5091615;28;20208;-79
2023/09/18 01:58:46;;;;;;;26.53;22.40;;;;;;;15.46;100.00;93356.16;5092520;28;20219;-80
2023/09/18 02:01:11;;;;;;;29.83;23.90;;;;;;;15.32;100.00;93351.91;5091579;28;20212;-79
2023/09/18 02:03:41;;;;;;;29.07;23.30;;;;;;;15.36;100.00;93358.94;5091088;28;20323;-80
2023/09/18 02:06:07;;;;;;;30.60;25.77;;;;;;;15.59;100.00;93357.25;5091528;28;20164;-81
2023/09/18 02:08:33;;;;;;;32.23;26.90;;;;;;;15.62;100.00;93364.59;5097111;28;20228;-81
2023/09/18 02:10:59;;;;;;;33.90;26.80;;;;;;;15.62;100.00;93351.41;5092252;28;20192;-82
2023/09/18 02:13:24;;;;;;;36.40;27.07;;;;;;;15.59;100.00;93349.38;5090708;28;20229;-81
2023/09/18 02:15:49;;;;;;;37.83;25.53;;;;;;;15.67;100.00;93370.53;5091210;28;20181;-82
2023/09/18 02:18:15;;;;;;;36.67;27.77;;;;;;;15.68;100.00;93366.84;5090896;28;20247;-81
2023/09/18 02:20:41;;;;;;;36.57;27.43;;;;;;;15.56;100.00;93365.75;5091606;28;20177;-82
2023/09/18 02:23:07;;;;;;;37.23;26.63;;;;;;;15.57;100.00;93367.28;5099682;28;20292;-78
2023/09/18 02:25:32;;;;;;;40.17;28.30;;;;;;;15.45;100.00;93348.56;5090497;28;20177;-78
2023/09/18 02:27:57;;;;;;;37.17;27.33;;;;;;;15.59;100.00;93367.78;5099029;28;20923;-79
2023/09/18 02:30:23;;;;;;;35.47;26.97;;;;;;;15.64;100.00;93370.34;5091170;28;20184;-79
2023/09/18 02:32:48;;;;;;;37.13;26.20;;;;;;;15.60;100.00;93370.13;5089985;28;20248;-80
2023/09/18 02:35:13;;;;;;;32.53;24.63;;;;;;;15.56;100.00;93377.06;5090815;28;20211;-79
2023/09/18 02:37:39;;;;;;;31.87;25.00;;;;;;;15.41;100.00;93376.53;5090395;28;20205;-79
2023/09/18 02:40:05;;;;;;;35.53;24.73;;;;;;;15.39;100.00;93368.16;5090625;28;20244;-79
2023/09/18 02:42:30;;;;;;;35.23;24.60;;;;;;;15.45;100.00;93367.78;5080956;28;20177;-80
2023/09/18 02:44:55;;;;;;;33.23;25.90;;;;;;;15.40;100.00;93361.81;5087194;28;20196;-80
2023/09/18 02:47:21;;;;;;;31.27;25.20;;;;;;;15.47;100.00;93362.22;5091028;28;20201;-81
2023/09/18 02:49:46;;;;;;;28.53;24.70;;;;;;;15.35;100.00;93356.59;5090158;28;20220;-80
2023/09/18 02:52:12;;;;;;;30.30;25.10;;;;;;;15.33;100.00;93361.38;5090702;28;20193;-80
2023/09/18 02:54:37;;;;;;;34.60;25.73;;;;;;;15.30;100.00;93359.34;5089628;28;20223;-80
2023/09/18 02:57:03;;;;;;;36.00;26.57;;;;;;;15.26;100.00;93366.22;5090230;28;20272;-80
2023/09/18 02:59:28;;;;;;;37.47;25.57;;;;;;;15.23;100.00;93374.69;5089674;28;20220;-80
2023/09/18 03:01:53;;;;;;;33.77;24.27;;;;;;;15.33;100.00;93364.78;5090514;28;20169;-79
2023/09/18 03:04:19;;;;;;;36.33;25.90;;;;;;;15.23;100.00;93369.44;5089454;28;20221;-80
2023/09/18 03:06:45;;;;;;;36.10;26.13;;;;;;;15.23;100.00;93364.97;5090400;28;20185;-80
2023/09/18 03:09:10;;;;;;;36.93;26.37;;;;;;;15.25;100.00;93373.31;5089747;28;20238;-80
2023/09/18 03:11:35;;;;;;;42.13;25.97;;;;;;;15.17;100.00;93370.59;5072465;28;20180;-80
2023/09/18 03:14:01;;;;;;;37.43;27.53;;;;;;;15.14;100.00;93348.28;5089497;28;20224;-80
2023/09/18 03:16:26;;;;;;;38.67;27.00;;;;;;;15.34;100.00;93365.56;5090359;28;20893;-81
2023/09/18 03:18:52;;;;;;;35.17;26.13;;;;;;;15.33;100.00;93353.50;5102166;28;20224;-80
2023/09/18 03:21:17;;;;;;;37.67;25.60;;;;;;;15.35;100.00;93352.13;5089990;28;20200;-80
2023/09/18 03:23:42;;;;;;;38.93;26.50;;;;;;;15.25;100.00;93356.78;5071624;28;20228;-80
2023/09/18 03:26:08;;;;;;;39.17;27.17;;;;;;;15.30;100.00;93359.34;5089991;28;20189;-81
2023/09/18 03:28:33;;;;;;;39.83;26.97;;;;;;;15.31;100.00;93350.34;5088964;28;20225;-80
2023/09/18 03:30:58;;;;;;;33.77;25.30;;;;;;;15.25;100.00;93351.50;5089758;28;20219;-81
2023/09/18 03:33:24;;;;;;;36.63;25.53;;;;;;;15.27;100.00;93352.00;5088902;28;20216;-81
2023/09/18 03:35:54;;;;;;;31.70;24.70;;;;;;;15.13;100.00;93335.41;5077893;28;20176;-81
2023/09/18 03:38:20;;;;;;;33.40;24.83;;;;;;;15.02;100.00;93297.97;5083277;28;20233;-81
2023/09/18 03:40:45;;;;;;;32.50;23.47;;;;;;;15.47;100.00;93338.53;5089659;28;20180;-82
2023/09/18 03:43:11;;;;;;;26.00;22.07;;;;;;;15.44;100.00;93337.25;5088293;28;20225;-80
2023/09/18 03:45:37;;;;;;;30.07;22.63;;;;;;;15.46;100.00;93326.44;5085325;28;20170;-80
2023/09/18 03:48:03;;;;;;;25.80;22.30;;;;;;;15.70;100.00;93332.31;5089308;28;20228;-81
2023/09/18 03:50:28;;;;;;;30.33;23.30;;;;;;;15.70;100.00;93329.69;5089355;28;20249;-80
2023/09/18 03:52:53;;;;;;;29.03;22.50;;;;;;;15.68;100.00;93334.47;5088206;28;20232;-80
2023/09/18 03:55:19;;;;;;;24.77;21.73;;;;;;;15.75;100.00;93332.22;5081888;28;20233;-78
2023/09/18 03:57:47;;;;;;;29.43;24.00;;;;;;;15.69;100.00;93310.47;5087986;28;20180;-80
2023/09/18 04:00:13;;;;;;;27.03;22.93;;;;;;;15.78;100.00;93318.47;5084880;28;20189;-78
2023/09/18 04:02:38;;;;;;;29.50;23.17;;;;;;;15.80;100.00;93332.13;5088159;28;20192;-79
2023/09/18 04:05:04;;;;;;;29.83;24.27;;;;;;;15.57;100.00;93339.13;5063413;28;20185;-81
2023/09/18 04:07:31;;;;;;;34.07;24.97;;;;;;;15.59;100.00;93336.22;5085905;28;20185;-76
2023/09/18 04:09:56;;;;;;;34.70;24.73;;;;;;;15.53;100.00;93342.63;5084514;28;20181;-74
2023/09/18 04:12:21;;;;;;;30.90;25.03;;;;;;;15.26;100.00;93339.91;5080498;28;20269;-73
2023/09/18 04:14:47;;;;;;;35.77;26.03;;;;;;;15.24;100.00;93329.69;5078736;28;20247;-73
2023/09/18 04:17:12;;;;;;;37.37;29.73;;;;;;;15.28;100.00;93341.19;5081601;28;20219;-75
2023/09/18 04:19:38;;;;;;;32.33;25.87;;;;;;;15.26;100.00;93345.97;5088019;28;20571;-73
2023/09/18 04:22:03;;;;;;;31.47;24.10;;;;;;;15.44;100.00;93349.66;5088113;28;20566;-72
2023/09/18 04:24:29;;;;;;;36.73;25.77;;;;;;;15.29;100.00;93352.47;5087592;28;20272;-73
2023/09/18 04:26:54;;;;;;;32.63;25.33;;;;;;;15.23;100.00;93359.69;5083402;28;20195;-72
2023/09/18 04:29:19;;;;;;;32.47;25.80;;;;;;;15.39;100.00;93362.88;5087853;28;20220;-72
2023/09/18 04:31:45;;;;;;;31.90;25.33;;;;;;;15.40;100.00;93354.69;5083957;28;20241;-74
2023/09/18 04:34:11;;;;;;;31.17;22.80;;;;;;;15.46;100.00;93363.28;5083502;28;20233;-82
2023/09/18 04:36:37;;;;;;;33.07;25.07;;;;;;;15.56;100.00;93366.53;5088070;28;20177;-85
2023/09/18 04:39:04;;;;;;;38.00;26.27;;;;;;;15.59;100.00;93365.97;5087319;28;20228;-85
2023/09/18 04:41:30;;;;;;;36.70;24.50;;;;;;;15.70;100.00;93366.53;5088312;28;20285;-86
2023/09/18 04:43:55;;;;;;;36.57;25.33;;;;;;;15.84;100.00;93372.59;5083344;28;20221;-86
2023/09/18 04:46:21;;;;;;;33.90;26.50;;;;;;;15.95;100.00;93366.09;5081796;28;20184;-86
2023/09/18 04:48:46;;;;;;;33.47;25.03;;;;;;;15.87;100.00;93364.13;5087233;28;20332;-87
2023/09/18 04:51:12;;;;;;;32.90;26.27;;;;;;;15.92;100.00;93354.25;5086877;28;20505;-88
2023/09/18 04:53:38;;;;;;;39.03;26.73;;;;;;;15.77;100.00;93364.28;5072461;28;20217;-86
2023/09/18 04:56:03;;;;;;;33.63;27.20;;;;;;;16.02;100.00;93363.81;5059117;28;20294;-86
2023/09/18 04:58:29;;;;;;;38.10;29.47;;;;;;;16.16;100.00;93366.44;5065923;28;20220;-86
2023/09/18 05:00:59;;;;;;;33.10;27.50;;;;;;;16.03;100.00;93344.34;5053389;28;20198;-85
2023/09/18 05:03:26;;;;;;;34.87;27.70;;;;;;;16.02;100.00;93355.94;5067050;28;20253;-86
2023/09/18 05:05:52;;;;;;;36.90;27.17;;;;;;;16.27;100.00;93368.59;5067884;28;20194;-86
2023/09/18 05:08:17;;;;;;;34.43;27.67;;;;;;;16.27;100.00;93367.81;5059676;28;20309;-86
2023/09/18 05:10:43;;;;;;;42.10;29.13;;;;;;;16.21;100.00;93369.78;5062940;28;20181;-86
2023/09/18 05:13:09;;;;;;;41.30;29.67;;;;;;;15.97;100.00;93364.72;5074380;28;20247;-85
2023/09/18 05:15:35;;;;;;;35.13;28.03;;;;;;;16.26;100.00;93366.25;5093894;28;20184;-84
2023/09/18 05:18:00;;;;;;;36.33;28.40;;;;;;;16.14;100.00;93364.09;5093563;28;20232;-85
2023/09/18 05:20:34;;;;;;;34.73;28.63;;;;;;;16.41;100.00;93366.72;5091779;28;20218;-86
2023/09/18 05:23:00;;;;;;;38.40;29.83;;;;;;;16.50;100.00;93380.81;5076612;28;20224;-85
2023/09/18 05:25:31;;;;;;;40.10;30.93;;;;;;;16.70;100.00;93376.97;5082654;28;20190;-85
2023/09/18 05:27:59;;;;;;;37.60;28.17;;;;;;;16.67;100.00;93373.06;5086979;28;20229;-86
2023/09/18 05:30:34;;;;;;;36.13;29.47;;;;;;;16.67;100.00;93378.31;5086656;28;20260;-84
2023/09/18 05:33:04;;;;;;;37.63;28.17;;;;;;;16.70;100.00;93379.59;5077804;28;20248;-86
2023/09/18 05:35:39;;;;;;;38.77;29.37;;;;;;;16.84;100.00;93383.75;5082452;28;20187;-86
2023/09/18 05:38:05;;;;;;;36.20;28.57;;;;;;;16.86;100.00;93384.25;5090125;28;20244;-85
2023/09/18 05:40:31;;;;;;;40.27;28.67;;;;;;;16.94;100.00;93396.72;5090972;28;20252;-87
2023/09/18 05:42:56;;;;;;;38.43;29.87;;;;;;;16.93;100.00;93389.91;5083423;28;20233;-85
2023/09/18 05:45:22;;;;;;;38.10;29.20;;;;;;;17.45;100.00;93391.84;5089831;28;20211;-86
2023/09/18 05:47:49;;;;;;;35.73;28.50;;;;;;;17.69;100.00;93394.19;5081568;28;20255;-84
2023/09/18 05:50:16;;;;;;;37.43;29.13;;;;;;;17.80;100.00;93392.84;5090611;28;20802;-86
2023/09/18 05:52:45;;;;;;;36.33;29.07;;;;;;;17.92;100.00;93397.53;5080863;28;20189;-84
2023/09/18 05:55:11;;;;;;;33.93;26.30;;;;;;;18.09;100.00;93401.06;5088548;28;20208;-85
2023/09/18 05:57:37;;;;;;;37.43;28.50;;;;;;;18.00;100.00;93404.75;5090698;28;20192;-85
2023/09/18 06:00:02;;;;;;;33.67;27.87;;;;;;;18.16;100.00;93395.34;5089792;28;20178;-86
2023/09/18 06:02:28;;;;;;;34.93;28.90;;;;;;;18.16;100.00;93405.91;5089200;28;20223;-80
2023/09/18 06:04:57;;;;;;;33.47;26.77;;;;;;;17.83;100.00;93407.28;5090022;28;20258;-85
2023/09/18 06:07:24;;;;;;;36.60;25.77;;;;;;;18.33;100.00;93390.88;5090532;28;20180;-85
2023/09/18 06:09:49;;;;;;;31.20;25.93;;;;;;;18.67;96.25;93406.09;5081913;28;20208;-84
2023/09/18 06:12:14;;;;;;;32.37;25.00;;;;;;;17.86;100.00;93404.03;5083504;28;20241;-84
2023/09/18 06:14:40;;;;;;;32.73;25.03;;;;;;;17.95;100.00;93391.66;5083815;28;20236;-86
2023/09/18 06:17:06;;;;;;;32.97;26.80;;;;;;;18.45;99.20;93392.97;5088422;28;20264;-85
2023/09/18 06:19:32;;;;;;;32.63;25.53;;;;;;;18.41;98.47;93410.53;5089851;28;20224;-84
2023/09/18 06:21:58;;;;;;;32.03;25.73;;;;;;;18.41;98.64;93405.25;5090587;28;20828;-85
2023/09/18 06:24:23;;;;;;;37.70;27.10;;;;;;;18.17;100.00;93391.59;5086826;28;20229;-85
2023/09/18 06:26:50;;;;;;;33.60;26.70;;;;;;;18.41;99.90;93407.91;5074520;28;20178;-84
2023/09/18 06:29:16;;;;;;;33.63;25.40;;;;;;;18.13;100.00;93403.88;5090160;28;20232;-85
2023/09/18 06:31:41;;;;;;;37.40;26.80;;;;;;;18.47;99.67;93398.72;5086013;28;20201;-85
2023/09/18 06:34:06;;;;;;;35.60;25.70;;;;;;;18.82;97.98;93410.94;5086675;28;20300;-84
2023/09/18 06:36:32;;;;;;;28.80;23.93;;;;;;;18.69;98.05;93415.25;5076737;28;20186;-86
2023/09/18 06:38:58;;;;;;;33.67;26.27;;;;;;;18.84;98.10;93417.50;5088520;28;20221;-84
2023/09/18 06:41:23;;;;;;;36.20;27.37;;;;;;;18.65;99.14;93406.41;5089869;28;20190;-85
2023/09/18 06:43:49;;;;;;;33.67;25.67;;;;;;;18.91;96.88;93403.81;5090093;28;20286;-85
2023/09/18 06:46:14;;;;;;;33.30;25.83;;;;;;;18.87;96.28;93408.16;5089815;28;20212;-76
2023/09/18 06:48:39;;;;;;;38.60;27.23;;;;;;;19.10;96.13;93398.97;5090795;28;20213;-84
2023/09/18 06:51:06;;;;;;;33.73;25.30;;;;;;;19.47;94.44;93403.66;5090385;28;20257;-81
2023/09/18 06:53:31;;;;;;;30.30;23.97;;;;;;;19.87;90.45;93412.97;5072352;28;20218;-80
2023/09/18 06:55:57;;;;;;;26.57;22.40;;;;;;;19.90;89.72;93401.72;5082249;28;20198;-81
2023/09/18 06:58:22;;;;;;;30.53;24.33;;;;;;;19.48;92.65;93407.88;5093824;28;20230;-81
2023/09/18 07:00:50;;;;;;;31.33;23.50;;;;;;;19.61;91.22;93404.25;5074329;28;20186;-80
2023/09/18 07:03:16;;;;;;;27.60;22.73;;;;;;;19.95;89.01;93412.16;5075819;28;20223;-83
2023/09/18 07:05:42;;;;;;;28.27;21.27;;;;;;;19.78;91.23;93401.56;5080824;28;20174;-82
2023/09/18 07:08:11;;;;;;;25.53;22.77;;;;;;;19.99;88.16;93415.72;5088842;28;20244;-83
2023/09/18 07:10:37;;;;;;;28.33;23.47;;;;;;;19.86;90.04;93408.75;5088957;28;20184;-78
2023/09/18 07:13:03;;;;;;;25.83;21.73;;;;;;;19.89;90.23;93413.41;5070881;28;20259;-77
2023/09/18 07:15:29;;;;;;;27.03;21.87;;;;;;;20.32;88.29;93421.25;5089325;28;20190;-76
2023/09/18 07:17:54;;;;;;;26.43;19.80;;;;;;;20.44;83.62;93414.19;5083834;28;20259;-75
2023/09/18 07:20:22;;;;;;;24.13;21.57;;;;;;;20.20;84.96;93408.66;5084674;28;20242;-75
2023/09/18 07:22:48;;;;;;;26.23;21.27;;;;;;;20.26;85.37;93422.53;5078979;28;20239;-76
2023/09/18 07:25:14;;;;;;;26.73;23.20;;;;;;;20.19;85.75;93415.06;5085582;28;20224;-76
2023/09/18 07:27:44;;;;;;;26.70;22.93;;;;;;;20.40;85.59;93417.81;5081080;28;20215;-81
2023/09/18 07:30:15;;;;;;;26.73;23.90;;;;;;;20.44;85.08;93424.81;5085045;28;20192;-80
2023/09/18 07:32:42;;;;;;;24.47;21.80;;;;;;;20.22;85.86;93409.13;5088571;28;20187;-77
2023/09/18 07:35:08;;;;;;;27.30;22.43;;;;;;;20.40;85.96;93431.06;5078876;28;20223;-77
2023/09/18 07:37:34;;;;;;;22.67;20.27;;;;;;;20.56;83.56;93426.78;5088426;28;20183;-77
2023/09/18 07:40:00;;;;;;;24.07;20.93;;;;;;;20.60;83.93;93427.69;5088254;28;20211;-77
2023/09/18 07:42:26;;;;;;;23.98;21.38;;;;;;;20.62;83.71;93428.16;5088330;28;20199;-79
2023/09/18 07:44:51;;;;;;;24.47;21.67;;;;;;;20.53;83.43;93425.53;5088759;28;20238;-77
2023/09/18 07:47:17;;;;;;;28.30;23.73;;;;;;;20.66;83.78;93419.25;5078663;28;20199;-86
2023/09/18 07:49:42;;;;;;;25.77;22.97;;;;;;;20.88;83.13;93423.47;5069417;28;20300;-86
2023/09/18 07:52:07;;;;;;;26.17;20.40;;;;;;;20.90;81.64;93421.28;5068639;28;20181;-86
2023/09/18 07:54:33;;;;;;;23.70;21.20;;;;;;;20.88;82.06;93423.47;5085336;28;20229;-90
2023/09/18 07:57:00;;;;;;;26.10;21.63;;;;;;;20.90;82.55;93423.94;5090552;28;20183;-91
2023/09/18 07:59:25;;;;;;;27.13;21.30;;;;;;;20.77;81.38;93422.28;5088627;28;20227;-90
2023/09/18 08:01:51;;;;;;;22.65;20.48;;;;;;;20.57;82.42;93418.50;5089125;28;20195;-89
2023/09/18 08:04:16;;;;;;;23.90;21.50;;;;;;;20.62;82.02;93418.31;5086486;28;20228;-90
2023/09/18 08:06:42;;;;;;;23.67;21.17;;;;;;;20.25;82.57;93376.66;5089513;28;20179;-90
2023/09/18 08:09:09;;;;;;;24.20;21.60;;;;;;;20.62;83.93;93415.66;5088996;28;20221;-90
2023/09/18 08:11:36;;;;;;;23.87;21.37;;;;;;;20.75;82.61;93397.19;5085012;28;20217;-89
2023/09/18 08:14:02;;;;;;;21.15;18.90;;;;;;;21.04;80.70;93416.56;5082298;28;20351;-88
2023/09/18 08:16:29;;;;;;;23.08;20.38;;;;;;;21.00;80.05;93415.63;5071363;28;20171;-86
2023/09/18 08:18:56;;;;;;;23.92;20.27;;;;;;;21.19;79.92;93418.63;5087417;28;20240;-92
2023/09/18 08:21:23;;;;;;;23.08;20.52;;;;;;;21.11;81.17;93416.78;5082651;28;20176;-91
2023/09/18 08:23:48;;;;;;;22.55;20.15;;;;;;;21.21;80.70;93416.44;5070446;28;20300;-93
2023/09/18 08:26:13;;;;;;;25.30;19.87;;;;;;;21.23;79.50;93405.47;5078947;28;20192;-89
2023/09/18 08:28:43;;;;;;;23.50;19.25;;;;;;;21.31;79.40;93412.59;5087038;28;20254;-89
2023/09/18 08:31:09;;;;;;;24.95;20.30;;;;;;;21.36;79.17;93409.72;5089213;28;20214;-89
2023/09/18 08:33:36;;;;;;;23.83;21.30;;;;;;;21.45;78.81;93407.78;5088039;28;20228;-90
2023/09/18 08:36:01;;;;;;;21.55;19.20;;;;;;;21.26;78.63;93413.56;5088293;28;20199;-91
2023/09/18 08:38:27;;;;;;;21.27;18.98;;;;;;;21.44;77.24;93414.19;5087440;28;20264;-89
2023/09/18 08:40:54;;;;;;;22.40;18.70;;;;;;;21.33;77.18;93408.50;5083256;28;20206;-90
2023/09/18 08:43:21;;;;;;;22.17;19.45;;;;;;;21.62;76.43;93405.75;5088484;28;20245;-93
2023/09/18 08:45:52;;;;;;;18.85;16.90;;;;;;;21.58;74.83;93398.75;5089788;28;20199;-88
2023/09/18 08:48:18;;;;;;;19.33;17.40;;;;;;;21.63;75.46;93401.22;5085902;28;20229;-91
2023/09/18 08:50:44;;;;;;;21.52;17.75;;;;;;;21.78;77.17;93397.97;5072521;28;20216;-82
2023/09/18 08:53:10;;;;;;;18.80;16.95;;;;;;;21.99;73.17;93398.69;5069187;28;20224;-83
2023/09/18 08:55:35;;;;;;;18.70;16.90;;;;;;;21.92;73.76;93393.91;5046505;28;20640;-82
2023/09/18 08:58:01;;;;;;;17.35;14.95;;;;;;;22.16;70.84;93398.50;5075098;28;20224;-83
2023/09/18 09:00:27;;;;;;;17.67;15.93;;;;;;;22.03;72.14;93399.59;5092222;28;20220;-85
2023/09/18 09:02:54;;;;;;;20.25;16.42;;;;;;;22.01;73.77;93396.47;5096138;28;20874;-85
2023/09/18 09:05:20;;;;;;;18.67;16.77;;;;;;;22.07;72.27;93387.19;5072140;28;20194;-85
2023/09/18 09:07:46;;;;;;;18.92;16.95;;;;;;;21.95;73.39;93395.13;5071212;28;20239;-82
2023/09/18 09:10:11;;;;;;;19.10;17.15;;;;;;;21.96;73.71;93399.38;5071544;28;20192;-81
2023/09/18 09:12:57;;;;;;;20.52;16.80;;;;;;;21.93;74.26;93394.72;5071170;28;20248;-83
2023/09/18 09:15:45;;;;;;;17.65;15.95;;;;;;;22.24;70.62;93394.97;5061871;28;20194;-82
2023/09/18 09:18:11;;;;;;;19.45;16.65;;;;;;;22.33;70.95;93400.97;5072321;28;20233;-84
2023/09/18 09:20:37;;;;;;;17.13;15.32;;;;;;;22.34;69.89;93404.41;5085195;28;20238;-82
2023/09/18 09:23:04;;;;;;;18.48;16.63;;;;;;;22.15;69.35;93386.31;5091920;28;20237;-81
2023/09/18 09:25:31;;;;;;;17.77;15.73;;;;;;;22.29;68.46;93400.06;5091678;28;20191;-85
2023/09/18 09:27:58;;;;;;;17.95;16.10;;;;;;;22.31;68.78;93397.88;5084608;28;20229;-89
2023/09/18 09:30:26;;;;;;;17.75;16.02;;;;;;;22.03;70.19;93381.75;5081716;28;20219;-89
2023/09/18 09:32:53;;;;;;;17.50;14.45;;;;;;;22.43;67.50;93386.47;5089981;28;20226;-86
2023/09/18 09:35:22;;;;;;;15.88;14.32;;;;;;;22.50;67.59;93392.78;5083594;28;20223;-87
2023/09/18 09:37:51;;;;;;;15.93;14.43;;;;;;;22.74;65.11;93378.72;5078759;28;20272;-87
2023/09/18 09:40:19;;;;;;;15.90;14.25;;;;;;;22.57;65.91;93376.28;5095764;28;20265;-77
2023/09/18 09:42:46;;;;;;;16.17;14.43;;;;;;;22.71;66.18;93374.06;5079988;28;20189;-79
2023/09/18 09:45:15;;;;;;;15.48;14.15;;;;;;;22.97;64.37;93385.13;5096485;28;20651;-78
2023/09/18 09:47:41;;;;;;;17.17;15.38;;;;;;;22.86;66.90;93374.16;5091647;28;20193;-84
2023/09/18 09:50:16;;;;;;;16.98;15.27;;;;;;;23.14;65.14;93379.53;5063966;28;20195;-83
2023/09/18 09:52:48;;;;;;;16.08;14.48;;;;;;;23.09;65.62;93371.78;5059177;28;20215;-82
2023/09/18 09:55:38;;;;;;;14.73;13.32;;;;;;;23.21;61.02;93380.50;5070848;28;20216;-84
2023/09/18 09:58:06;;;;;;;16.00;13.07;;;;;;;23.33;61.39;93361.84;5073658;28;20243;-82
2023/09/18 10:00:42;;;;;;;15.25;13.90;;;;;;;23.37;59.80;93370.72;5089939;28;20195;-76
2023/09/18 10:03:09;;;;;;;15.65;14.10;;;;;;;23.31;60.72;93368.63;5091674;28;20240;-76
2023/09/18 10:05:39;;;;;;;14.80;13.30;;;;;;;23.48;58.11;93369.13;5100698;28;20188;-77
2023/09/18 10:08:10;;;;;;;14.13;12.93;;;;;;;23.51;58.03;93363.13;5089376;28;20469;-79
2023/09/18 10:10:42;;;;;;;13.60;12.40;;;;;;;23.45;59.93;93369.03;5085967;28;20200;-79
2023/09/18 10:13:31;;;;;;;13.85;12.50;;;;;;;23.45;59.59;93364.47;5089678;28;20267;-78
2023/09/18 10:16:00;;;;;;;16.27;14.68;;;;;;;23.08;60.30;93365.66;5088021;28;20213;-78
2023/09/18 10:18:42;;;;;;;15.30;13.90;;;;;;;22.98;61.51;93366.13;5091560;28;20234;-78
2023/09/18 10:21:13;;;;;;;15.07;13.63;;;;;;;23.11;60.43;93365.00;5090436;28;20192;-77
2023/09/18 10:23:55;;;;;;;15.20;13.70;;;;;;;22.96;60.29;93357.69;5081312;28;20237;-76
2023/09/18 10:26:29;;;;;;;15.60;14.18;;;;;;;22.90;62.28;93337.75;5071882;28;20210;-75
2023/09/18 10:28:59;;;;;;;15.60;14.10;;;;;;;23.23;61.94;93351.63;5094470;28;20212;-78
2023/09/18 10:31:28;;;;;;;15.50;14.10;;;;;;;23.15;61.31;93344.56;5088916;28;20190;-75
2023/09/18 10:33:56;;;;;;;14.55;13.32;;;;;;;23.30;61.36;93351.09;5077426;28;20234;-77
2023/09/18 10:36:24;;;;;;;15.82;14.40;;;;;;;23.12;63.33;93342.56;5068377;28;20188;-77
2023/09/18 10:38:51;;;;;;;16.38;13.75;;;;;;;23.21;61.40;93337.88;5078348;28;20224;-78
2023/09/18 10:41:20;;;;;;;14.85;13.63;;;;;;;23.40;60.80;93339.94;5087466;28;20198;-79
2023/09/18 10:43:47;;;;;;;15.55;14.13;;;;;;;23.26;61.99;93334.22;5090563;28;20266;-78
2023/09/18 10:46:13;;;;;;;15.45;13.63;;;;;;;23.14;62.22;93324.38;5087112;28;20205;-79
2023/09/18 10:48:43;;;;;;;14.90;13.45;;;;;;;23.42;61.16;93327.84;5083622;28;20226;-78
2023/09/18 10:51:11;;;;;;;16.85;14.57;;;;;;;23.55;60.97;93320.53;5089991;28;20193;-78
2023/09/18 10:53:36;;;;;;;16.58;14.82;;;;;;;23.57;59.12;93318.31;5087722;28;20223;-78
2023/09/18 10:56:04;;;;;;;15.20;13.90;;;;;;;23.61;60.29;93324.53;5080859;28;20205;-76
2023/09/18 10:58:30;;;;;;;15.05;13.75;;;;;;;23.40;61.63;93322.06;5087945;28;20231;-78
2023/09/18 11:00:57;;;;;;;14.98;13.57;;;;;;;23.72;59.65;93323.69;5089010;28;20271;-74
2023/09/18 11:03:23;;;;;;;13.82;12.68;;;;;;;23.70;59.72;93317.16;5064314;28;20257;-84
2023/09/18 11:06:02;;;;;;;15.65;14.13;;;;;;;23.93;57.49;93323.44;5074975;28;20191;-76
2023/09/18 11:08:43;;;;;;;15.43;14.02;;;;;;;23.71;58.85;93314.13;5083284;28;20277;-76
2023/09/18 11:11:14;;;;;;;15.43;14.20;;;;;;;23.88;57.62;93312.28;5085252;28;20207;-78